createdAt,value
2018-12-07T00:00:18.682Z,1006.66
2018-12-07T00:01:18.670Z,1006.60
2018-12-07T00:02:18.658Z,1006.59
2018-12-07T00:03:18.683Z,1006.50
2018-12-07T00:04:18.636Z,1006.51
2018-12-07T00:05:18.626Z,1006.48
2018-12-07T00:06:18.615Z,1006.48
2018-12-07T00:07:18.604Z,1006.57
2018-12-07T00:08:18.620Z,1006.55
2018-12-07T00:09:18.620Z,1006.47
2018-12-07T00:10:18.573Z,1006.51
2018-12-07T00:11:18.565Z,1006.48
2018-12-07T00:12:18.554Z,1006.51
2018-12-07T00:13:18.541Z,1006.47
2018-12-07T00:14:18.534Z,1006.44
2018-12-07T00:15:18.559Z,1006.44
2018-12-07T00:16:18.512Z,1006.41
2018-12-07T00:17:18.497Z,1006.47
2018-12-07T00:18:18.488Z,1006.44
2018-12-07T00:19:18.476Z,1006.45
2018-12-07T00:20:18.464Z,1006.34
2018-12-07T00:21:18.489Z,1006.38
2018-12-07T00:22:18.442Z,1006.38
2018-12-07T00:23:18.449Z,1006.39
2018-12-07T00:24:18.422Z,1006.42
2018-12-07T00:25:18.411Z,1006.41
2018-12-07T00:26:18.401Z,1006.39
2018-12-07T00:27:18.427Z,1006.39
2018-12-07T00:28:18.378Z,1006.36
2018-12-07T00:29:18.365Z,1006.36
2018-12-07T00:30:18.357Z,1006.32
2018-12-07T00:31:18.348Z,1006.21
2018-12-07T00:32:18.349Z,1006.26
2018-12-07T00:33:18.362Z,1006.17
2018-12-07T00:34:18.313Z,1006.17
2018-12-07T00:35:18.301Z,1006.12
2018-12-07T00:36:18.299Z,1006.11
2018-12-07T00:37:18.282Z,1006.09
2018-12-07T00:38:18.271Z,1006.10
2018-12-07T00:39:18.297Z,1006.00
2018-12-07T00:40:18.251Z,1006.12
2018-12-07T00:41:18.237Z,1006.06
2018-12-07T00:42:18.227Z,1006.11
2018-12-07T00:43:18.216Z,1006.13
2018-12-07T00:44:18.211Z,1006.10
2018-12-07T00:45:18.231Z,1006.10
2018-12-07T00:46:18.185Z,1006.10
2018-12-07T00:47:18.171Z,1006.14
2018-12-07T00:48:18.162Z,1006.14
2018-12-07T00:49:18.151Z,1006.16
2018-12-07T00:50:18.143Z,1006.17
2018-12-07T00:51:18.165Z,1006.11
2018-12-07T00:52:18.128Z,1006.15
2018-12-07T00:53:18.107Z,1006.11
2018-12-07T00:54:18.099Z,1006.13
2018-12-07T00:55:18.085Z,1006.10
2018-12-07T00:56:18.075Z,1006.08
2018-12-07T00:57:18.099Z,1006.07
2018-12-07T00:58:18.055Z,1006.10
2018-12-07T00:59:18.043Z,1006.09
2018-12-07T01:00:18.035Z,1006.05
2018-12-07T01:01:18.020Z,1006.01
2018-12-07T01:02:18.010Z,1006.01
2018-12-07T01:03:18.039Z,1005.97
2018-12-07T01:04:17.989Z,1005.97
2018-12-07T01:05:17.977Z,1005.93
2018-12-07T01:06:17.967Z,1005.96
2018-12-07T01:07:17.956Z,1005.92
2018-12-07T01:08:17.947Z,1005.86
2018-12-07T01:09:17.973Z,1005.89
2018-12-07T01:10:17.927Z,1005.87
2018-12-07T01:11:17.913Z,1005.88
2018-12-07T01:12:17.900Z,1005.82
2018-12-07T01:13:17.890Z,1005.84
2018-12-07T01:14:17.881Z,1005.84
2018-12-07T01:15:17.893Z,1005.86
2018-12-07T01:16:17.858Z,1005.85
2018-12-07T01:17:17.846Z,1005.82
2018-12-07T01:18:17.835Z,1005.87
2018-12-07T01:19:17.826Z,1005.85
2018-12-07T01:20:17.841Z,1005.82
2018-12-07T01:21:17.802Z,1005.82
2018-12-07T01:22:17.792Z,1005.85
2018-12-07T01:23:17.782Z,1005.81
2018-12-07T01:24:17.774Z,1005.81
2018-12-07T01:25:17.787Z,1005.77
2018-12-07T01:26:17.748Z,1005.77
2018-12-07T01:27:17.736Z,1005.70
2018-12-07T01:28:17.727Z,1005.71
2018-12-07T01:29:17.716Z,1005.71
2018-12-07T01:30:17.740Z,1005.75
2018-12-07T01:31:17.695Z,1005.79
2018-12-07T01:32:17.685Z,1005.78
2018-12-07T01:33:17.672Z,1005.76
2018-12-07T01:34:17.660Z,1005.72
2018-12-07T01:35:17.677Z,1005.64
2018-12-07T01:36:17.642Z,1005.68
2018-12-07T01:37:17.628Z,1005.68
2018-12-07T01:38:17.623Z,1005.74
2018-12-07T01:39:17.606Z,1005.73
2018-12-07T01:40:17.622Z,1005.68
2018-12-07T01:41:17.584Z,1005.74
2018-12-07T01:42:17.574Z,1005.71
2018-12-07T01:43:17.563Z,1005.71
2018-12-07T01:44:17.553Z,1005.72
2018-12-07T01:45:17.571Z,1005.71
2018-12-07T01:46:17.534Z,1005.70
2018-12-07T01:47:17.518Z,1005.72
2018-12-07T01:48:17.508Z,1005.70
2018-12-07T01:49:18.462Z,1005.64
2018-12-07T01:50:17.512Z,1005.64
2018-12-07T01:51:17.476Z,1005.64
2018-12-07T01:52:17.464Z,1005.59
2018-12-07T01:53:17.457Z,1005.52
2018-12-07T01:54:17.444Z,1005.50
2018-12-07T01:55:17.458Z,1005.56
2018-12-07T01:56:17.424Z,1005.55
2018-12-07T01:57:17.414Z,1005.54
2018-12-07T01:58:17.401Z,1005.46
2018-12-07T01:59:17.389Z,1005.56
2018-12-07T02:00:17.408Z,1005.55
2018-12-07T02:01:17.370Z,1005.54
2018-12-07T02:02:17.360Z,1005.50
2018-12-07T02:03:17.346Z,1005.52
2018-12-07T02:04:17.333Z,1005.44
2018-12-07T02:05:17.348Z,1005.42
2018-12-07T02:06:17.317Z,1005.42
2018-12-07T02:07:17.301Z,1005.39
2018-12-07T02:08:17.291Z,1005.36
2018-12-07T02:09:17.279Z,1005.35
2018-12-07T02:10:17.297Z,1005.33
2018-12-07T02:11:17.258Z,1005.29
2018-12-07T02:12:17.248Z,1005.33
2018-12-07T02:13:17.238Z,1005.32
2018-12-07T02:14:17.225Z,1005.31
2018-12-07T02:15:17.239Z,1005.20
2018-12-07T02:16:17.205Z,1005.25
2018-12-07T02:17:17.194Z,1005.21
2018-12-07T02:18:17.187Z,1005.22
2018-12-07T02:19:17.174Z,1005.17
2018-12-07T02:20:17.185Z,1005.16
2018-12-07T02:21:17.161Z,1005.12
2018-12-07T02:22:17.140Z,1005.11
2018-12-07T02:23:17.128Z,1005.04
2018-12-07T02:24:17.121Z,1005.05
2018-12-07T02:25:17.132Z,1005.08
2018-12-07T02:26:17.097Z,1005.07
2018-12-07T02:27:17.088Z,1005.08
2018-12-07T02:28:17.074Z,1005.10
2018-12-07T02:29:17.066Z,1004.97
2018-12-07T02:30:17.095Z,1004.99
2018-12-07T02:31:17.043Z,1005.00
2018-12-07T02:32:17.031Z,1004.98
2018-12-07T02:33:17.024Z,1005.04
2018-12-07T02:34:17.008Z,1005.00
2018-12-07T02:35:17.001Z,1005.00
2018-12-07T02:36:17.034Z,1004.99
2018-12-07T02:37:16.975Z,1004.92
2018-12-07T02:38:16.969Z,1004.90
2018-12-07T02:39:16.954Z,1004.89
2018-12-07T02:40:16.950Z,1004.87
2018-12-07T02:41:16.933Z,1004.90
2018-12-07T02:42:16.959Z,1004.92
2018-12-07T02:43:16.911Z,1004.87
2018-12-07T02:44:16.900Z,1004.90
2018-12-07T02:45:16.896Z,1004.91
2018-12-07T02:46:16.879Z,1004.85
2018-12-07T02:47:16.873Z,1004.83
2018-12-07T02:48:16.883Z,1004.78
2018-12-07T02:49:16.865Z,1004.78
2018-12-07T02:50:16.847Z,1004.74
2018-12-07T02:51:16.825Z,1004.75
2018-12-07T02:52:16.814Z,1004.72
2018-12-07T02:53:16.879Z,1004.73
2018-12-07T02:54:16.792Z,1004.71
2018-12-07T02:55:16.780Z,1004.68
2018-12-07T02:56:16.768Z,1004.66
2018-12-07T02:57:16.759Z,1004.67
2018-12-07T02:58:16.747Z,1004.62
2018-12-07T02:59:16.830Z,1004.60
2018-12-07T03:00:16.724Z,1004.59
2018-12-07T03:01:16.717Z,1004.60
2018-12-07T03:02:16.705Z,1004.56
2018-12-07T03:03:16.692Z,1004.59
2018-12-07T03:04:16.682Z,1004.55
2018-12-07T03:05:16.711Z,1004.59
2018-12-07T03:06:16.663Z,1004.52
2018-12-07T03:07:16.655Z,1004.48
2018-12-07T03:08:16.638Z,1004.48
2018-12-07T03:09:16.627Z,1004.46
2018-12-07T03:10:16.619Z,1004.47
2018-12-07T03:11:16.642Z,1004.43
2018-12-07T03:12:16.597Z,1004.42
2018-12-07T03:13:16.587Z,1004.40
2018-12-07T03:14:16.575Z,1004.41
2018-12-07T03:15:16.561Z,1004.41
2018-12-07T03:16:16.551Z,1004.37
2018-12-07T03:17:16.579Z,1004.42
2018-12-07T03:18:16.530Z,1004.36
2018-12-07T03:19:16.520Z,1004.40
2018-12-07T03:20:16.528Z,1004.37
2018-12-07T03:21:16.501Z,1004.32
2018-12-07T03:22:16.486Z,1004.34
2018-12-07T03:23:16.516Z,1004.35
2018-12-07T03:24:16.465Z,1004.33
2018-12-07T03:25:16.460Z,1004.35
2018-12-07T03:26:16.530Z,1004.30
2018-12-07T03:27:16.433Z,1004.28
2018-12-07T03:28:16.422Z,1004.29
2018-12-07T03:29:16.447Z,1004.29
2018-12-07T03:30:16.415Z,1004.24
2018-12-07T03:31:16.390Z,1004.28
2018-12-07T03:32:16.379Z,1004.24
2018-12-07T03:33:16.369Z,1004.25
2018-12-07T03:34:16.357Z,1004.20
2018-12-07T03:35:16.381Z,1004.16
2018-12-07T03:36:16.334Z,1004.14
2018-12-07T03:37:16.328Z,1004.13
2018-12-07T03:38:16.321Z,1004.11
2018-12-07T03:39:16.311Z,1004.10
2018-12-07T03:40:16.290Z,1004.12
2018-12-07T03:41:16.316Z,1004.17
2018-12-07T03:42:16.271Z,1004.13
2018-12-07T03:43:16.257Z,1004.10
2018-12-07T03:44:16.265Z,1004.09
2018-12-07T03:45:16.239Z,1004.13
2018-12-07T03:46:16.234Z,1004.10
2018-12-07T03:47:16.251Z,1004.08
2018-12-07T03:48:16.204Z,1004.06
2018-12-07T03:49:16.194Z,1004.06
2018-12-07T03:50:16.181Z,1004.07
2018-12-07T03:51:16.171Z,1004.04
2018-12-07T03:52:16.163Z,1004.06
2018-12-07T03:53:16.185Z,1004.00
2018-12-07T03:54:16.142Z,1004.04
2018-12-07T03:55:16.129Z,1004.02
2018-12-07T03:56:16.118Z,1004.04
2018-12-07T03:57:16.107Z,1003.99
2018-12-07T03:58:16.097Z,1003.95
2018-12-07T03:59:16.122Z,1003.98
2018-12-07T04:00:16.074Z,1003.99
2018-12-07T04:01:16.065Z,1003.97
2018-12-07T04:02:16.052Z,1004.01
2018-12-07T04:03:16.043Z,1004.00
2018-12-07T04:04:16.036Z,1003.99
2018-12-07T04:05:16.057Z,1003.97
2018-12-07T04:06:16.083Z,1004.04
2018-12-07T04:07:15.998Z,1003.98
2018-12-07T04:08:15.986Z,1003.98
2018-12-07T04:09:15.989Z,1003.93
2018-12-07T04:10:15.967Z,1003.93
2018-12-07T04:11:15.991Z,1003.94
2018-12-07T04:12:15.946Z,1003.94
2018-12-07T04:13:15.940Z,1003.88
2018-12-07T04:14:15.922Z,1003.93
2018-12-07T04:15:15.917Z,1003.92
2018-12-07T04:16:15.900Z,1003.90
2018-12-07T04:17:15.928Z,1003.90
2018-12-07T04:18:15.879Z,1003.87
2018-12-07T04:19:15.871Z,1003.89
2018-12-07T04:20:15.859Z,1003.88
2018-12-07T04:21:15.848Z,1003.84
2018-12-07T04:22:15.838Z,1003.86
2018-12-07T04:23:15.879Z,1003.82
2018-12-07T04:24:15.815Z,1003.83
2018-12-07T04:25:15.803Z,1003.84
2018-12-07T04:26:15.794Z,1003.79
2018-12-07T04:27:15.781Z,1003.82
2018-12-07T04:28:15.772Z,1003.83
2018-12-07T04:29:15.802Z,1003.84
2018-12-07T04:30:15.752Z,1003.83
2018-12-07T04:31:15.739Z,1003.85
2018-12-07T04:32:15.727Z,1003.82
2018-12-07T04:33:15.727Z,1003.87
2018-12-07T04:34:15.707Z,1003.88
2018-12-07T04:35:15.732Z,1003.87
2018-12-07T04:36:15.696Z,1003.80
2018-12-07T04:37:15.676Z,1003.80
2018-12-07T04:38:15.661Z,1003.84
2018-12-07T04:39:15.651Z,1003.86
2018-12-07T04:40:15.640Z,1003.87
2018-12-07T04:41:15.668Z,1003.85
2018-12-07T04:42:15.639Z,1003.87
2018-12-07T04:43:15.608Z,1003.88
2018-12-07T04:44:15.599Z,1003.85
2018-12-07T04:45:15.586Z,1003.83
2018-12-07T04:46:15.577Z,1003.83
2018-12-07T04:47:15.602Z,1003.84
2018-12-07T04:48:15.554Z,1003.85
2018-12-07T04:49:15.548Z,1003.80
2018-12-07T04:50:15.536Z,1003.82
2018-12-07T04:51:15.520Z,1003.83
2018-12-07T04:52:15.509Z,1003.80
2018-12-07T04:53:15.534Z,1003.73
2018-12-07T04:54:15.492Z,1003.77
2018-12-07T04:55:15.478Z,1003.68
2018-12-07T04:56:15.467Z,1003.68
2018-12-07T04:57:15.457Z,1003.67
2018-12-07T04:58:15.447Z,1003.69
2018-12-07T04:59:15.474Z,1003.64
2018-12-07T05:00:15.423Z,1003.66
2018-12-07T05:01:15.536Z,1003.67
2018-12-07T05:02:15.401Z,1003.62
2018-12-07T05:03:15.391Z,1003.64
2018-12-07T05:04:15.381Z,1003.59
2018-12-07T05:05:15.407Z,1003.60
2018-12-07T05:06:15.361Z,1003.60
2018-12-07T05:07:15.348Z,1003.53
2018-12-07T05:08:15.338Z,1003.54
2018-12-07T05:09:15.326Z,1003.56
2018-12-07T05:10:15.313Z,1003.49
2018-12-07T05:11:15.344Z,1003.54
2018-12-07T05:12:15.293Z,1003.46
2018-12-07T05:13:15.281Z,1003.51
2018-12-07T05:14:15.271Z,1003.55
2018-12-07T05:15:15.263Z,1003.52
2018-12-07T05:16:15.253Z,1003.51
2018-12-07T05:17:15.265Z,1003.52
2018-12-07T05:18:15.227Z,1003.53
2018-12-07T05:19:15.216Z,1003.54
2018-12-07T05:20:15.206Z,1003.52
2018-12-07T05:21:15.194Z,1003.54
2018-12-07T05:22:15.223Z,1003.54
2018-12-07T05:23:15.173Z,1003.53
2018-12-07T05:24:15.163Z,1003.53
2018-12-07T05:25:15.151Z,1003.57
2018-12-07T05:26:15.142Z,1003.54
2018-12-07T05:27:15.129Z,1003.54
2018-12-07T05:28:15.156Z,1003.58
2018-12-07T05:29:15.107Z,1003.57
2018-12-07T05:30:15.098Z,1003.53
2018-12-07T05:31:15.086Z,1003.54
2018-12-07T05:32:15.075Z,1003.56
2018-12-07T05:33:15.065Z,1003.61
2018-12-07T05:34:15.139Z,1003.53
2018-12-07T05:35:15.044Z,1003.56
2018-12-07T05:36:15.032Z,1003.56
2018-12-07T05:37:15.022Z,1003.55
2018-12-07T05:38:15.011Z,1003.51
2018-12-07T05:39:15.001Z,1003.51
2018-12-07T05:40:15.027Z,1003.51
2018-12-07T05:41:14.976Z,1003.49
2018-12-07T05:42:14.967Z,1003.46
2018-12-07T05:43:14.955Z,1003.47
2018-12-07T05:44:14.948Z,1003.51
2018-12-07T05:45:14.942Z,1003.50
2018-12-07T05:46:14.969Z,1003.53
2018-12-07T05:47:14.910Z,1003.53
2018-12-07T05:48:14.901Z,1003.52
2018-12-07T05:49:14.893Z,1003.55
2018-12-07T05:50:14.878Z,1003.54
2018-12-07T05:51:14.867Z,1003.53
2018-12-07T05:52:14.895Z,1003.52
2018-12-07T05:53:14.850Z,1003.48
2018-12-07T05:54:14.837Z,1003.45
2018-12-07T05:55:14.825Z,1003.54
2018-12-07T05:56:14.813Z,1003.50
2018-12-07T05:57:14.804Z,1003.51
2018-12-07T05:58:14.831Z,1003.52
2018-12-07T05:59:14.781Z,1003.57
2018-12-07T06:00:14.771Z,1003.50
2018-12-07T06:01:14.767Z,1003.48
2018-12-07T06:02:14.749Z,1003.44
2018-12-07T06:03:14.738Z,1003.45
2018-12-07T06:04:14.753Z,1003.46
2018-12-07T06:05:14.715Z,1003.45
2018-12-07T06:06:14.727Z,1003.47
2018-12-07T06:07:14.701Z,1003.45
2018-12-07T06:08:14.682Z,1003.37
2018-12-07T06:09:14.709Z,1003.42
2018-12-07T06:10:14.663Z,1003.36
2018-12-07T06:11:14.656Z,1003.36
2018-12-07T06:12:14.640Z,1003.39
2018-12-07T06:13:14.628Z,1003.45
2018-12-07T06:14:14.618Z,1003.39
2018-12-07T06:15:14.648Z,1003.45
2018-12-07T06:16:14.599Z,1003.44
2018-12-07T06:17:14.585Z,1003.43
2018-12-07T06:18:14.574Z,1003.41
2018-12-07T06:19:14.565Z,1003.48
2018-12-07T06:20:14.553Z,1003.44
2018-12-07T06:21:14.581Z,1003.47
2018-12-07T06:22:14.531Z,1003.43
2018-12-07T06:23:14.519Z,1003.41
2018-12-07T06:24:14.512Z,1003.40
2018-12-07T06:25:14.499Z,1003.44
2018-12-07T06:26:14.488Z,1003.39
2018-12-07T06:27:14.513Z,1003.41
2018-12-07T06:28:14.490Z,1003.36
2018-12-07T06:29:14.459Z,1003.36
2018-12-07T06:30:14.443Z,1003.33
2018-12-07T06:31:14.432Z,1003.29
2018-12-07T06:32:14.422Z,1003.26
2018-12-07T06:33:14.452Z,1003.22
2018-12-07T06:34:14.401Z,1003.19
2018-12-07T06:35:14.390Z,1003.27
2018-12-07T06:36:14.379Z,1003.26
2018-12-07T06:37:14.370Z,1003.30
2018-12-07T06:38:14.357Z,1003.30
2018-12-07T06:39:14.380Z,1003.32
2018-12-07T06:40:14.335Z,1003.35
2018-12-07T06:41:14.326Z,1003.28
2018-12-07T06:42:14.315Z,1003.26
2018-12-07T06:43:14.303Z,1003.25
2018-12-07T06:44:14.329Z,1003.27
2018-12-07T06:45:14.282Z,1003.26
2018-12-07T06:46:14.271Z,1003.26
2018-12-07T06:47:14.259Z,1003.23
2018-12-07T06:48:14.252Z,1003.25
2018-12-07T06:49:14.240Z,1003.24
2018-12-07T06:50:14.264Z,1003.18
2018-12-07T06:51:14.217Z,1003.21
2018-12-07T06:52:14.209Z,1003.21
2018-12-07T06:53:14.198Z,1003.17
2018-12-07T06:54:14.194Z,1003.14
2018-12-07T06:55:14.175Z,1003.12
2018-12-07T06:56:14.200Z,1003.12
2018-12-07T06:57:14.154Z,1003.12
2018-12-07T06:58:14.144Z,1003.17
2018-12-07T06:59:14.133Z,1003.21
2018-12-07T07:00:14.122Z,1003.12
2018-12-07T07:01:14.110Z,1003.08
2018-12-07T07:02:14.137Z,1003.11
2018-12-07T07:03:14.091Z,1003.10
2018-12-07T07:04:14.078Z,1003.11
2018-12-07T07:05:14.068Z,1003.10
2018-12-07T07:06:14.060Z,1003.07
2018-12-07T07:07:14.048Z,1003.10
2018-12-07T07:08:14.072Z,1003.09
2018-12-07T07:09:14.030Z,1003.11
2018-12-07T07:10:14.019Z,1003.11
2018-12-07T07:11:14.003Z,1003.08
2018-12-07T07:12:13.994Z,1003.10
2018-12-07T07:13:13.983Z,1003.09
2018-12-07T07:14:14.010Z,1003.09
2018-12-07T07:15:13.959Z,1003.09
2018-12-07T07:16:13.952Z,1003.09
2018-12-07T07:17:13.940Z,1003.08
2018-12-07T07:18:13.931Z,1003.10
2018-12-07T07:19:13.920Z,1003.16
2018-12-07T07:20:13.963Z,1003.13
2018-12-07T07:21:13.899Z,1003.08
2018-12-07T07:22:13.887Z,1003.14
2018-12-07T07:23:13.877Z,1003.08
2018-12-07T07:24:13.865Z,1003.14
2018-12-07T07:25:13.855Z,1003.08
2018-12-07T07:26:13.882Z,1003.13
2018-12-07T07:27:13.834Z,1003.12
2018-12-07T07:28:13.821Z,1003.12
2018-12-07T07:29:13.809Z,1003.16
2018-12-07T07:30:13.801Z,1003.17
2018-12-07T07:31:13.790Z,1003.16
2018-12-07T07:32:13.815Z,1003.15
2018-12-07T07:33:13.773Z,1003.16
2018-12-07T07:34:13.758Z,1003.11
2018-12-07T07:35:13.746Z,1003.15
2018-12-07T07:36:13.738Z,1003.17
2018-12-07T07:37:13.724Z,1003.11
2018-12-07T07:38:13.754Z,1003.10
2018-12-07T07:39:13.706Z,1003.13
2018-12-07T07:40:13.691Z,1003.09
2018-12-07T07:41:13.683Z,1003.10
2018-12-07T07:42:13.671Z,1003.13
2018-12-07T07:43:13.661Z,1003.06
2018-12-07T07:44:13.686Z,1003.06
2018-12-07T07:45:13.643Z,1003.07
2018-12-07T07:46:13.628Z,1003.11
2018-12-07T07:47:13.620Z,1003.03
2018-12-07T07:48:13.608Z,1002.98
2018-12-07T07:49:13.600Z,1002.98
2018-12-07T07:50:13.626Z,1003.00
2018-12-07T07:51:13.583Z,1002.99
2018-12-07T07:52:13.567Z,1002.99
2018-12-07T07:53:13.557Z,1002.98
2018-12-07T07:54:13.552Z,1002.90
2018-12-07T07:55:13.533Z,1002.90
2018-12-07T07:56:15.530Z,1002.92
2018-12-07T07:57:13.521Z,1002.84
2018-12-07T07:58:13.502Z,1002.85
2018-12-07T07:59:13.502Z,1002.85
2018-12-07T08:00:13.480Z,1002.87
2018-12-07T08:01:13.490Z,1002.84
2018-12-07T08:02:13.501Z,1002.87
2018-12-07T08:03:13.450Z,1002.85
2018-12-07T08:04:13.438Z,1002.85
2018-12-07T08:05:13.427Z,1002.81
2018-12-07T08:06:13.443Z,1002.73
2018-12-07T08:07:13.407Z,1002.75
2018-12-07T08:08:13.440Z,1002.72
2018-12-07T08:09:13.386Z,1002.66
2018-12-07T08:10:13.377Z,1002.68
2018-12-07T08:11:13.365Z,1002.70
2018-12-07T08:12:13.354Z,1002.61
2018-12-07T08:13:13.347Z,1002.66
2018-12-07T08:14:13.374Z,1002.62
2018-12-07T08:15:13.324Z,1002.61
2018-12-07T08:16:13.314Z,1002.61
2018-12-07T08:17:13.302Z,1002.58
2018-12-07T08:18:13.290Z,1002.58
2018-12-07T08:19:13.280Z,1002.52
2018-12-07T08:20:13.310Z,1002.49
2018-12-07T08:21:13.258Z,1002.49
2018-12-07T08:22:13.248Z,1002.49
2018-12-07T08:23:14.938Z,1002.50
2018-12-07T08:24:13.226Z,1002.46
2018-12-07T08:25:13.217Z,1002.48
2018-12-07T08:26:13.241Z,1002.44
2018-12-07T08:27:13.198Z,1002.47
2018-12-07T08:28:13.185Z,1002.45
2018-12-07T08:29:13.173Z,1002.50
2018-12-07T08:30:13.163Z,1002.51
2018-12-07T08:31:13.152Z,1002.50
2018-12-07T08:32:13.179Z,1002.50
2018-12-07T08:33:13.132Z,1002.47
2018-12-07T08:34:13.125Z,1002.49
2018-12-07T08:35:13.108Z,1002.44
2018-12-07T08:36:13.119Z,1002.45
2018-12-07T08:37:13.087Z,1002.43
2018-12-07T08:38:13.113Z,1002.42
2018-12-07T08:39:13.069Z,1002.45
2018-12-07T08:40:13.069Z,1002.45
2018-12-07T08:41:13.045Z,1002.46
2018-12-07T08:42:13.033Z,1002.46
2018-12-07T08:43:13.021Z,1002.39
2018-12-07T08:44:13.046Z,1002.45
2018-12-07T08:45:13.011Z,1002.42
2018-12-07T08:46:12.993Z,1002.45
2018-12-07T08:47:12.979Z,1002.43
2018-12-07T08:48:12.969Z,1002.41
2018-12-07T08:49:12.956Z,1002.45
2018-12-07T08:50:12.985Z,1002.38
2018-12-07T08:51:12.937Z,1002.43
2018-12-07T08:52:12.925Z,1002.39
2018-12-07T08:53:12.915Z,1002.40
2018-12-07T08:54:12.903Z,1002.40
2018-12-07T08:55:12.908Z,1002.36
2018-12-07T08:56:12.919Z,1002.35
2018-12-07T08:57:12.869Z,1002.32
2018-12-07T08:58:12.857Z,1002.30
2018-12-07T08:59:12.846Z,1002.30
2018-12-07T09:00:12.836Z,1002.28
2018-12-07T09:01:12.906Z,1002.29
2018-12-07T09:02:12.847Z,1002.30
2018-12-07T09:03:12.807Z,1002.28
2018-12-07T09:04:12.792Z,1002.31
2018-12-07T09:05:12.811Z,1002.28
2018-12-07T09:06:12.769Z,1002.26
2018-12-07T09:07:12.758Z,1002.28
2018-12-07T09:08:15.382Z,1002.27
2018-12-07T09:09:12.736Z,1002.23
2018-12-07T09:10:12.726Z,1002.27
2018-12-07T09:11:12.716Z,1002.22
2018-12-07T09:12:12.704Z,1002.24
2018-12-07T09:13:12.692Z,1002.20
2018-12-07T09:14:12.721Z,1002.20
2018-12-07T09:15:12.674Z,1002.19
2018-12-07T09:16:12.660Z,1002.17
2018-12-07T09:17:12.648Z,1002.17
2018-12-07T09:18:12.637Z,1002.15
2018-12-07T09:19:12.625Z,1002.11
2018-12-07T09:20:12.643Z,1002.07
2018-12-07T09:21:12.604Z,1002.06
2018-12-07T09:22:12.592Z,1002.09
2018-12-07T09:23:12.587Z,1002.09
2018-12-07T09:24:12.571Z,1002.05
2018-12-07T09:25:12.602Z,1002.03
2018-12-07T09:26:12.552Z,1002.02
2018-12-07T09:27:12.538Z,1002.05
2018-12-07T09:28:12.529Z,1002.04
2018-12-07T09:29:12.517Z,1002.03
2018-12-07T09:30:12.505Z,1002.05
2018-12-07T09:31:12.537Z,1001.93
2018-12-07T09:32:12.485Z,1001.99
2018-12-07T09:33:12.475Z,1001.95
2018-12-07T09:34:12.463Z,1001.95
2018-12-07T09:35:12.453Z,1001.96
2018-12-07T09:36:12.462Z,1001.96
2018-12-07T09:37:12.465Z,1001.96
2018-12-07T09:38:13.307Z,1001.98
2018-12-07T09:39:12.408Z,1001.92
2018-12-07T09:40:12.400Z,1001.93
2018-12-07T09:41:12.389Z,1001.94
2018-12-07T09:42:12.376Z,1001.91
2018-12-07T09:43:12.401Z,1001.88
2018-12-07T09:44:12.354Z,1001.88
2018-12-07T09:45:12.341Z,1001.80
2018-12-07T09:46:12.330Z,1001.84
2018-12-07T09:47:12.319Z,1001.80
2018-12-07T09:48:12.310Z,1001.75
2018-12-07T09:49:12.370Z,1001.77
2018-12-07T09:50:12.286Z,1001.77
2018-12-07T09:51:12.275Z,1001.73
2018-12-07T09:52:12.265Z,1001.77
2018-12-07T09:53:12.260Z,1001.74
2018-12-07T09:54:12.240Z,1001.74
2018-12-07T09:55:12.265Z,1001.66
2018-12-07T09:56:12.222Z,1001.68
2018-12-07T09:57:12.211Z,1001.65
2018-12-07T09:58:12.199Z,1001.63
2018-12-07T09:59:12.189Z,1001.67
2018-12-07T10:00:12.211Z,1001.64
2018-12-07T10:01:12.166Z,1001.67
2018-12-07T10:02:12.166Z,1001.68
2018-12-07T10:03:12.145Z,1001.64
2018-12-07T10:04:12.132Z,1001.60
2018-12-07T10:05:12.122Z,1001.57
2018-12-07T10:06:12.146Z,1001.54
2018-12-07T10:07:12.100Z,1001.56
2018-12-07T10:08:12.087Z,1001.52
2018-12-07T10:09:12.077Z,1001.47
2018-12-07T10:10:12.066Z,1001.50
2018-12-07T10:11:12.055Z,1001.41
2018-12-07T10:12:12.083Z,1001.39
2018-12-07T10:13:12.035Z,1001.32
2018-12-07T10:14:12.024Z,1001.29
2018-12-07T10:15:12.012Z,1001.27
2018-12-07T10:16:12.002Z,1001.26
2018-12-07T10:17:12.001Z,1001.27
2018-12-07T10:18:12.017Z,1001.23
2018-12-07T10:19:11.969Z,1001.16
2018-12-07T10:20:11.957Z,1001.14
2018-12-07T10:21:11.945Z,1001.11
2018-12-07T10:22:11.937Z,1001.13
2018-12-07T10:23:11.924Z,1001.09
2018-12-07T10:24:11.949Z,1001.05
2018-12-07T10:25:11.901Z,1001.10
2018-12-07T10:26:11.892Z,1001.03
2018-12-07T10:27:11.878Z,1001.02
2018-12-07T10:28:11.869Z,1000.97
2018-12-07T10:29:11.859Z,1000.96
2018-12-07T10:30:11.888Z,1000.94
2018-12-07T10:31:11.835Z,1000.92
2018-12-07T10:32:11.827Z,1000.85
2018-12-07T10:33:11.814Z,1000.85
2018-12-07T10:34:11.802Z,1000.86
2018-12-07T10:35:11.792Z,1000.84
2018-12-07T10:36:11.817Z,1000.81
2018-12-07T10:37:11.772Z,1000.82
2018-12-07T10:38:11.766Z,1000.77
2018-12-07T10:39:11.758Z,1000.80
2018-12-07T10:40:11.737Z,1000.75
2018-12-07T10:41:11.725Z,1000.81
2018-12-07T10:42:11.753Z,1000.71
2018-12-07T10:43:11.704Z,1000.74
2018-12-07T10:44:11.701Z,1000.68
2018-12-07T10:45:11.684Z,1000.70
2018-12-07T10:46:11.677Z,1000.72
2018-12-07T10:47:11.667Z,1000.65
2018-12-07T10:48:11.698Z,1000.65
2018-12-07T10:49:11.657Z,1000.64
2018-12-07T10:50:11.628Z,1000.64
2018-12-07T10:51:11.618Z,1000.67
2018-12-07T10:52:11.611Z,1000.59
2018-12-07T10:53:11.599Z,1000.59
2018-12-07T10:54:11.624Z,1000.57
2018-12-07T10:55:11.579Z,1000.59
2018-12-07T10:56:11.566Z,1000.47
2018-12-07T10:57:11.555Z,1000.52
2018-12-07T10:58:11.545Z,1000.44
2018-12-07T10:59:11.533Z,1000.46
2018-12-07T11:00:11.546Z,1000.41
2018-12-07T11:01:11.512Z,1000.36
2018-12-07T11:02:11.506Z,1000.35
2018-12-07T11:03:11.491Z,1000.32
2018-12-07T11:04:11.491Z,1000.28
2018-12-07T11:05:11.506Z,1000.29
2018-12-07T11:06:11.459Z,1000.26
2018-12-07T11:07:11.449Z,1000.28
2018-12-07T11:08:11.435Z,1000.24
2018-12-07T11:09:11.424Z,1000.20
2018-12-07T11:10:11.417Z,1000.20
2018-12-07T11:11:11.442Z,1000.19
2018-12-07T11:12:11.394Z,1000.18
2018-12-07T11:13:11.383Z,1000.11
2018-12-07T11:14:11.373Z,1000.12
2018-12-07T11:15:11.366Z,1000.20
2018-12-07T11:16:11.351Z,1000.13
2018-12-07T11:17:11.380Z,1000.08
2018-12-07T11:18:11.330Z,1000.11
2018-12-07T11:19:11.328Z,1000.02
2018-12-07T11:20:11.309Z,1000.05
2018-12-07T11:21:11.298Z,1000.03
2018-12-07T11:22:11.289Z,1000.00
2018-12-07T11:23:11.311Z,999.99
2018-12-07T11:24:11.268Z,999.97
2018-12-07T11:25:11.259Z,999.94
2018-12-07T11:26:11.243Z,999.96
2018-12-07T11:27:11.234Z,999.90
2018-12-07T11:28:11.226Z,999.88
2018-12-07T11:29:11.249Z,999.92
2018-12-07T11:30:11.199Z,999.90
2018-12-07T11:31:11.191Z,999.89
2018-12-07T11:32:11.178Z,999.90
2018-12-07T11:33:11.177Z,999.84
2018-12-07T11:34:11.161Z,999.83
2018-12-07T11:35:11.189Z,999.82
2018-12-07T11:36:11.139Z,999.77
2018-12-07T11:37:11.126Z,999.79
2018-12-07T11:38:11.116Z,999.83
2018-12-07T11:39:12.645Z,999.80
2018-12-07T11:40:11.093Z,999.74
2018-12-07T11:41:11.123Z,999.78
2018-12-07T11:42:11.074Z,999.74
2018-12-07T11:43:11.060Z,999.64
2018-12-07T11:44:11.050Z,999.75
2018-12-07T11:45:11.043Z,999.68
2018-12-07T11:46:11.034Z,999.68
2018-12-07T11:47:11.081Z,999.67
2018-12-07T11:48:11.005Z,999.61
2018-12-07T11:49:10.995Z,999.63
2018-12-07T11:50:10.985Z,999.63
2018-12-07T11:51:10.978Z,999.62
2018-12-07T11:52:10.965Z,999.58
2018-12-07T11:53:10.988Z,999.57
2018-12-07T11:54:10.943Z,999.54
2018-12-07T11:55:10.934Z,999.53
2018-12-07T11:56:10.922Z,999.56
2018-12-07T11:57:10.911Z,999.47
2018-12-07T11:58:10.899Z,999.52
2018-12-07T11:59:10.918Z,999.49
2018-12-07T12:00:10.885Z,999.50
2018-12-07T12:01:10.870Z,999.49
2018-12-07T12:02:10.865Z,999.45
2018-12-07T12:03:10.902Z,999.44
2018-12-07T12:04:10.836Z,999.40
2018-12-07T12:05:10.822Z,999.34
2018-12-07T12:06:10.814Z,999.38
2018-12-07T12:07:10.803Z,999.37